Time;durP1;ratioP1;P1;durP2;ratioP2;P2;SDS_P1;SDS_P2;PMS_P1;PMS_P2;Temp;Humidity;BMP_temperature;BMP_pressure;BME280_temperature;BME280_humidity;BME280_pressure;Samples;Min_cycle;Max_cycle;Signal;HPM_P1;HPM_P2
2021/05/16 00:01:00;;;;;;;8.17;5.47;;;;;;;13.10;86.17;98599.75;5054845;28;20041;-63
2021/05/16 00:03:29;;;;;;;7.95;5.43;;;;;;;13.11;86.43;98609.94;5054880;28;20065;-65
2021/05/16 00:06:02;;;;;;;7.43;5.30;;;;;;;13.13;86.21;98608.19;5055389;28;20049;-66
2021/05/16 00:08:31;;;;;;;7.43;5.30;;;;;;;13.14;86.16;98615.00;5054833;28;20446;-66
2021/05/16 00:11:03;;;;;;;7.47;5.13;;;;;;;13.14;86.41;98609.88;5054526;28;20098;-64
2021/05/16 00:13:32;;;;;;;7.90;5.25;;;;;;;13.13;86.43;98608.19;5054628;28;20403;-64
2021/05/16 00:16:04;;;;;;;6.95;3.88;;;;;;;13.19;86.23;98614.88;5054654;28;20122;-65
2021/05/16 00:18:33;;;;;;;7.07;4.88;;;;;;;13.19;86.54;98605.47;5054664;28;20064;-65
2021/05/16 00:21:07;;;;;;;7.07;5.28;;;;;;;13.22;86.55;98618.16;5054556;28;20045;-64
2021/05/16 00:23:36;;;;;;;6.07;4.80;;;;;;;13.23;86.49;98599.34;5054328;28;20069;-65
2021/05/16 00:26:09;;;;;;;6.40;4.57;;;;;;;13.27;86.17;98606.06;5054429;28;20071;-65
2021/05/16 00:28:38;;;;;;;6.97;4.50;;;;;;;13.24;86.41;98595.94;5054438;28;20056;-65
2021/05/16 00:31:09;;;;;;;6.47;4.27;;;;;;;13.28;86.33;98601.78;5054204;28;20037;-64
2021/05/16 00:34:01;;;;;;;6.72;4.40;;;;;;;13.29;86.34;98594.03;5053658;28;20077;-64
2021/05/16 00:36:34;;;;;;;7.35;4.68;;;;;;;13.28;86.64;98602.63;5054277;28;20057;-65
2021/05/16 00:39:06;;;;;;;6.85;4.38;;;;;;;13.22;86.51;98587.41;5053999;28;20057;-65
2021/05/16 00:41:35;;;;;;;7.00;4.32;;;;;;;13.32;86.48;98588.84;5054505;28;20406;-65
2021/05/16 00:44:05;;;;;;;6.47;4.68;;;;;;;13.30;86.07;98584.63;5053234;28;20132;-65
2021/05/16 00:46:37;;;;;;;6.25;4.50;;;;;;;13.34;86.22;98591.38;5054098;28;20144;-65
2021/05/16 00:49:11;;;;;;;7.35;4.43;;;;;;;13.38;86.24;98588.66;5054007;28;20045;-64
2021/05/16 00:51:44;;;;;;;6.78;4.68;;;;;;;13.39;86.29;98590.34;5052989;28;20084;-64
2021/05/16 00:54:17;;;;;;;6.10;4.32;;;;;;;13.40;85.91;98592.03;5054014;28;20053;-64
2021/05/16 00:56:50;;;;;;;12.38;5.35;;;;;;;13.35;86.11;98580.22;5053962;28;20103;-64
2021/05/16 00:59:22;;;;;;;6.55;4.57;;;;;;;13.38;86.01;98593.78;5053906;28;20056;-64
2021/05/16 01:01:54;;;;;;;7.22;4.55;;;;;;;13.38;85.82;98588.66;5053901;28;20049;-65
2021/05/16 01:04:27;;;;;;;6.95;4.38;;;;;;;13.38;85.81;98577.56;5054727;28;20056;-65
2021/05/16 01:07:00;;;;;;;6.63;4.68;;;;;;;13.33;85.82;98574.31;5053813;28;20486;-65
2021/05/16 01:09:32;;;;;;;6.22;4.43;;;;;;;13.37;85.92;98579.28;5053785;28;20045;-65
2021/05/16 01:12:06;;;;;;;5.50;4.07;;;;;;;13.36;85.90;98575.03;5053523;28;20063;-63
2021/05/16 01:14:38;;;;;;;7.00;4.57;;;;;;;13.37;85.93;98576.72;5053541;28;20057;-65
2021/05/16 01:17:11;;;;;;;7.22;4.18;;;;;;;13.37;85.85;98574.16;5053545;28;20612;-63
2021/05/16 01:19:41;;;;;;;8.52;4.80;;;;;;;13.32;85.77;98560.66;5053681;28;20064;-64
2021/05/16 01:22:12;;;;;;;5.75;4.22;;;;;;;13.32;86.09;98565.78;5053649;28;20048;-64
2021/05/16 01:24:48;;;;;;;5.90;4.28;;;;;;;13.32;85.85;98568.34;5053641;28;20060;-65
2021/05/16 01:27:21;;;;;;;8.38;4.97;;;;;;;13.30;85.75;98559.00;5053623;28;20490;-65
2021/05/16 01:29:53;;;;;;;6.70;4.60;;;;;;;13.33;86.05;98564.06;5053808;28;20053;-64
2021/05/16 01:32:26;;;;;;;6.72;4.90;;;;;;;13.33;86.01;98561.50;5052164;28;20048;-65
2021/05/16 01:34:59;;;;;;;7.13;4.40;;;;;;;13.30;86.17;98554.72;5053850;28;20049;-64
2021/05/16 01:37:32;;;;;;;6.90;4.53;;;;;;;13.27;85.96;98559.94;5052462;28;20060;-63
2021/05/16 01:40:02;;;;;;;9.07;4.82;;;;;;;13.24;86.13;98548.97;5053601;28;20053;-65
2021/05/16 01:42:39;;;;;;;6.47;4.53;;;;;;;13.20;86.22;98549.91;5053488;28;20056;-65
2021/05/16 01:45:13;;;;;;;6.78;4.68;;;;;;;13.20;85.87;98548.19;5053491;28;20045;-63
2021/05/16 01:47:45;;;;;;;6.32;4.35;;;;;;;13.18;86.36;98544.84;5053181;28;20517;-63
2021/05/16 01:50:17;;;;;;;7.93;4.13;;;;;;;13.13;86.27;98549.25;5052545;28;20207;-65
2021/05/16 01:52:51;;;;;;;5.95;4.28;;;;;;;13.16;86.06;98549.19;5053089;28;20045;-63
2021/05/16 01:55:23;;;;;;;6.55;4.30;;;;;;;13.19;86.42;98554.22;5054027;28;20053;-65
2021/05/16 01:57:56;;;;;;;6.63;4.55;;;;;;;13.20;86.29;98548.19;5057312;28;20071;-65
2021/05/16 02:00:28;;;;;;;7.45;4.32;;;;;;;13.13;86.33;98549.25;5057492;28;20080;-65
2021/05/16 02:03:03;;;;;;;5.97;4.18;;;;;;;13.17;86.27;98544.91;5056005;28;20040;-65
2021/05/16 02:05:39;;;;;;;6.10;4.50;;;;;;;13.12;86.54;98552.72;5055778;28;20071;-65
2021/05/16 02:08:13;;;;;;;5.88;4.53;;;;;;;13.13;86.58;98550.97;5057138;28;20045;-63
2021/05/16 02:10:43;;;;;;;8.35;4.57;;;;;;;13.11;86.66;98563.84;5057313;28;20053;-65
2021/05/16 02:13:17;;;;;;;6.30;4.50;;;;;;;13.02;86.79;98569.19;5057055;28;20106;-66
2021/05/16 02:16:05;;;;;;;9.05;4.93;;;;;;;13.11;86.74;98563.84;5056899;28;20068;-65
2021/05/16 02:18:38;;;;;;;10.35;4.75;;;;;;;13.12;86.81;98555.28;5056700;28;20060;-64
2021/05/16 02:21:15;;;;;;;6.63;4.75;;;;;;;13.12;86.63;98554.44;5057212;28;20045;-64
2021/05/16 02:23:48;;;;;;;6.80;4.03;;;;;;;13.06;86.92;98550.31;5056863;28;20072;-65
2021/05/16 02:26:32;;;;;;;6.93;4.63;;;;;;;13.12;87.10;98564.69;5056798;28;20057;-66
2021/05/16 02:29:01;;;;;;;7.93;5.05;;;;;;;13.08;87.11;98547.72;5057028;28;20548;-65
2021/05/16 02:31:34;;;;;;;7.60;4.78;;;;;;;13.06;87.22;98554.59;5056562;28;20037;-66
2021/05/16 02:34:07;;;;;;;6.55;4.25;;;;;;;13.11;87.22;98553.59;5056605;28;20052;-65
2021/05/16 02:36:40;;;;;;;6.65;3.47;;;;;;;13.07;87.18;98541.78;5056538;28;20098;-66
2021/05/16 02:39:14;;;;;;;5.35;3.28;;;;;;;13.17;87.33;98555.97;5056801;28;20041;-65
2021/05/16 02:41:48;;;;;;;6.10;3.22;;;;;;;13.13;87.35;98550.97;5056501;28;20179;-65
2021/05/16 02:44:21;;;;;;;5.43;3.35;;;;;;;13.12;87.23;98545.03;5055308;28;20037;-66
2021/05/16 02:46:54;;;;;;;5.90;3.55;;;;;;;13.13;87.21;98551.81;5056353;28;20517;-66
2021/05/16 02:49:29;;;;;;;5.20;3.88;;;;;;;13.04;87.25;98544.38;5055105;28;20056;-65
2021/05/16 02:52:02;;;;;;;6.68;4.00;;;;;;;13.04;87.51;98557.19;5054110;28;20560;-65
2021/05/16 02:54:37;;;;;;;6.22;4.32;;;;;;;13.03;87.82;98560.63;5055597;28;20459;-66
2021/05/16 02:57:10;;;;;;;8.10;4.80;;;;;;;13.10;87.56;98558.78;5056138;28;20057;-65
2021/05/16 02:59:39;;;;;;;6.22;4.35;;;;;;;13.13;87.82;98554.38;5056158;28;20449;-65
2021/05/16 03:02:12;;;;;;;6.70;3.85;;;;;;;13.15;88.07;98560.31;5056304;28;20554;-65
2021/05/16 03:04:44;;;;;;;8.13;4.30;;;;;;;13.15;88.04;98557.72;5056037;28;20057;-65
2021/05/16 03:07:14;;;;;;;6.95;4.25;;;;;;;13.18;87.77;98549.97;5054807;28;20076;-66
2021/05/16 03:09:47;;;;;;;6.97;4.00;;;;;;;13.20;87.74;98558.44;5056221;28;20564;-65
2021/05/16 03:12:19;;;;;;;6.15;3.67;;;;;;;13.17;88.11;98561.09;5055742;28;20049;-66
2021/05/16 03:14:51;;;;;;;5.78;3.72;;;;;;;13.13;88.20;98556.09;5055885;28;20055;-66
2021/05/16 03:17:23;;;;;;;7.03;4.13;;;;;;;13.11;88.23;98563.84;5056077;28;20095;-65
2021/05/16 03:19:53;;;;;;;7.95;4.25;;;;;;;13.15;88.50;98560.31;5055815;28;20411;-65
2021/05/16 03:22:25;;;;;;;7.35;4.20;;;;;;;13.19;88.42;98561.91;5055676;28;20053;-65
2021/05/16 03:24:58;;;;;;;6.25;4.13;;;;;;;13.07;88.31;98541.78;5055835;28;20045;-66
2021/05/16 03:27:31;;;;;;;6.97;4.50;;;;;;;13.18;88.51;98555.09;5055374;28;20061;-65
2021/05/16 03:30:01;;;;;;;6.55;4.63;;;;;;;13.13;88.13;98567.19;5055851;28;20064;-65
2021/05/16 03:32:33;;;;;;;5.43;4.10;;;;;;;13.08;88.30;98551.13;5055316;28;20541;-66
2021/05/16 03:35:08;;;;;;;7.28;4.53;;;;;;;13.11;88.73;98551.03;5037722;28;20056;-65
2021/05/16 03:37:40;;;;;;;5.93;4.45;;;;;;;13.13;88.58;98554.38;5055447;28;20065;-65
2021/05/16 03:40:14;;;;;;;5.78;4.13;;;;;;;13.12;88.33;98564.69;5055617;28;20542;-65
2021/05/16 03:42:45;;;;;;;7.40;3.80;;;;;;;13.12;88.69;98557.00;5055351;28;20049;-65
2021/05/16 03:45:18;;;;;;;6.13;4.32;;;;;;;13.07;88.90;98562.25;5055338;28;20083;-65
2021/05/16 03:47:50;;;;;;;5.88;4.43;;;;;;;13.12;88.92;98565.53;5055390;28;20406;-65
2021/05/16 03:50:22;;;;;;;6.07;4.15;;;;;;;13.18;88.86;98557.66;5054801;28;20518;-65
2021/05/16 03:52:54;;;;;;;7.15;4.32;;;;;;;13.23;88.56;98553.25;5030755;28;20140;-65
2021/05/16 03:55:28;;;;;;;5.90;4.13;;;;;;;13.20;88.93;98563.56;5035144;28;20100;-65
2021/05/16 03:58:00;;;;;;;5.72;3.78;;;;;;;13.12;88.62;98555.28;5034941;28;20057;-65
2021/05/16 04:00:29;;;;;;;9.10;4.88;;;;;;;13.17;88.62;98565.41;5035271;28;20099;-65
2021/05/16 04:02:58;;;;;;;7.13;4.22;;;;;;;13.16;88.89;98562.00;5035014;28;20053;-65
2021/05/16 04:05:27;;;;;;;6.43;4.65;;;;;;;13.22;88.86;98566.09;5035241;28;20049;-65
2021/05/16 04:07:59;;;;;;;6.93;4.70;;;;;;;13.24;88.74;98574.59;5035163;28;20057;-65
2021/05/16 04:10:33;;;;;;;6.88;4.97;;;;;;;13.21;88.54;98578.06;5017482;28;20080;-65
2021/05/16 04:13:05;;;;;;;8.57;4.45;;;;;;;13.11;88.61;98579.22;5034303;28;20407;-65
2021/05/16 04:15:37;;;;;;;6.88;4.63;;;;;;;13.09;88.84;98586.09;5035070;28;20088;-64
2021/05/16 04:18:09;;;;;;;5.75;4.13;;;;;;;12.98;88.58;98572.72;5034501;28;20144;-63
2021/05/16 04:20:41;;;;;;;6.68;4.13;;;;;;;13.01;88.73;98576.91;5034611;28;20045;-63
2021/05/16 04:23:14;;;;;;;7.15;4.47;;;;;;;13.01;88.58;98592.28;5034261;28;20053;-63
2021/05/16 04:25:50;;;;;;;7.22;4.15;;;;;;;12.96;88.57;98600.09;5034873;28;20111;-64
2021/05/16 04:28:22;;;;;;;5.20;3.92;;;;;;;12.98;88.90;98598.31;5034750;28;20152;-63
2021/05/16 04:30:54;;;;;;;7.03;4.93;;;;;;;12.98;88.57;98588.06;5034467;28;20081;-63
2021/05/16 04:33:27;;;;;;;6.45;4.68;;;;;;;12.96;88.56;98592.41;5034075;28;20064;-63
2021/05/16 04:35:59;;;;;;;6.88;4.40;;;;;;;12.99;88.90;98604.28;5034302;28;20057;-63
2021/05/16 04:38:30;;;;;;;5.88;4.22;;;;;;;13.03;88.59;98595.66;5034415;28;20076;-64
2021/05/16 04:41:03;;;;;;;7.38;4.43;;;;;;;12.98;88.71;98600.88;5034256;28;20064;-64
2021/05/16 04:43:35;;;;;;;6.47;4.70;;;;;;;13.09;88.62;98601.47;5034276;28;20053;-64
2021/05/16 04:46:47;;;;;;;7.75;4.75;;;;;;;13.12;89.12;98596.28;5180171;23;20051;31
2021/05/16 04:49:16;;;;;;;6.13;4.35;;;;;;;13.15;88.93;98606.41;4955037;29;20051;-68
2021/05/16 04:51:48;;;;;;;5.90;4.68;;;;;;;13.21;88.83;98611.38;4956051;29;20075;-66
2021/05/16 04:54:20;;;;;;;6.15;5.03;;;;;;;13.17;88.79;98614.88;4956304;29;20055;-67
2021/05/16 04:56:50;;;;;;;6.15;4.70;;;;;;;13.23;88.55;98613.88;4956053;29;20051;-65
2021/05/16 04:59:22;;;;;;;7.15;5.00;;;;;;;13.26;88.75;98604.41;4957105;29;20051;-66
2021/05/16 05:01:54;;;;;;;6.68;5.18;;;;;;;13.30;88.29;98605.97;4954845;29;20065;-65
2021/05/16 05:04:27;;;;;;;6.82;4.85;;;;;;;13.31;88.38;98602.56;4955899;29;20070;-65
2021/05/16 05:06:59;;;;;;;8.13;5.10;;;;;;;13.34;88.53;98602.44;4955870;29;20149;-66
2021/05/16 05:09:32;;;;;;;6.93;5.03;;;;;;;13.38;88.46;98598.06;4955863;29;20122;-66
2021/05/16 05:12:03;;;;;;;6.03;4.40;;;;;;;13.34;88.37;98607.56;4955762;29;20055;-66
2021/05/16 05:14:35;;;;;;;7.55;4.78;;;;;;;13.38;88.32;98598.06;4955773;29;20133;-66
2021/05/16 05:17:04;;;;;;;6.53;4.50;;;;;;;13.38;88.18;98592.94;4955794;29;20163;-65
2021/05/16 05:19:36;;;;;;;7.25;5.00;;;;;;;13.53;88.59;98604.47;4956028;29;20489;-65
2021/05/16 05:22:05;;;;;;;6.30;4.43;;;;;;;13.55;88.51;98605.25;4955766;29;20059;-66
2021/05/16 05:24:37;;;;;;;6.57;4.72;;;;;;;13.50;88.21;98607.13;4955653;29;20122;-64
2021/05/16 05:27:07;;;;;;;7.13;4.57;;;;;;;13.49;87.97;98610.56;4955698;29;20453;-67
2021/05/16 05:29:39;;;;;;;5.82;4.15;;;;;;;13.54;88.18;98608.69;4955706;28;20051;-66
2021/05/16 05:32:10;;;;;;;7.28;4.55;;;;;;;13.57;88.19;98609.47;4959284;29;20079;-65
2021/05/16 05:34:43;;;;;;;6.15;4.45;;;;;;;13.61;88.06;98605.91;4959612;29;20074;-66
2021/05/16 05:37:12;;;;;;;7.13;4.80;;;;;;;13.68;88.18;98612.53;4959607;29;20063;-65
2021/05/16 05:39:44;;;;;;;8.57;5.00;;;;;;;13.75;87.84;98605.50;4959542;29;20059;-64
2021/05/16 05:42:14;;;;;;;7.40;5.07;;;;;;;13.81;88.03;98613.84;4959793;29;20055;-69
2021/05/16 05:44:46;;;;;;;8.93;5.00;;;;;;;13.85;87.59;98610.28;4959268;29;20062;-65
2021/05/16 05:47:18;;;;;;;9.18;5.30;;;;;;;13.85;87.64;98609.44;4958914;29;20055;-66
2021/05/16 05:49:47;;;;;;;6.40;5.05;;;;;;;13.78;87.46;98607.97;4959296;29;20057;-65
2021/05/16 05:52:16;;;;;;;7.72;5.80;;;;;;;13.77;87.54;98606.31;4958883;29;20043;-65
2021/05/16 05:54:45;;;;;;;7.82;5.78;;;;;;;13.72;87.42;98588.50;4959158;29;20057;-67
2021/05/16 05:57:16;;;;;;;6.20;4.35;;;;;;;13.81;87.36;98606.16;4959178;29;20090;-64
2021/05/16 05:59:52;;;;;;;8.15;5.78;;;;;;;13.81;87.54;98607.88;4959206;29;20138;-68
2021/05/16 06:02:22;;;;;;;8.05;5.68;;;;;;;13.81;87.62;98613.00;4959078;29;20062;-67
2021/05/16 06:04:51;;;;;;;7.93;5.95;;;;;;;13.76;87.40;98605.44;4959024;29;20066;-68
2021/05/16 06:07:20;;;;;;;7.10;5.50;;;;;;;13.60;87.67;98577.78;4958949;29;20493;-64
2021/05/16 06:09:49;;;;;;;7.75;5.13;;;;;;;13.79;87.78;98609.66;4958938;29;20130;-68
2021/05/16 06:12:19;;;;;;;8.98;5.70;;;;;;;13.78;87.39;98607.97;4958914;29;20404;-68
2021/05/16 06:14:53;;;;;;;8.00;6.28;;;;;;;13.79;87.57;98607.94;4958912;29;20486;-64
2021/05/16 06:17:22;;;;;;;10.27;6.82;;;;;;;13.76;87.51;98609.75;4959143;29;20047;-68
2021/05/16 06:19:51;;;;;;;8.48;6.25;;;;;;;13.71;87.59;98609.03;4958752;29;20051;-65
2021/05/16 06:22:20;;;;;;;9.43;7.15;;;;;;;13.70;87.97;98609.94;4958624;29;20046;-66
2021/05/16 06:24:55;;;;;;;9.60;7.07;;;;;;;13.63;87.65;98611.00;4958643;29;20134;-68
2021/05/16 06:27:25;;;;;;;8.77;6.05;;;;;;;13.66;87.89;98616.03;4958579;29;20284;-68
2021/05/16 06:29:54;;;;;;;10.63;7.50;;;;;;;13.71;87.90;98616.72;4958630;29;20055;-68
2021/05/16 06:32:23;;;;;;;11.77;8.25;;;;;;;13.79;87.92;98617.34;4958386;29;20492;-67
2021/05/16 06:34:52;;;;;;;7.72;5.68;;;;;;;13.78;87.59;98618.22;4958511;29;20054;-67
2021/05/16 06:37:21;;;;;;;10.98;7.78;;;;;;;13.76;87.74;98625.13;4958431;29;20523;-67
2021/05/16 06:39:50;;;;;;;9.68;7.13;;;;;;;13.79;88.02;98622.47;4959181;29;20070;-65
2021/05/16 06:42:20;;;;;;;9.65;7.10;;;;;;;13.78;87.68;98623.34;4958350;28;20074;-65
2021/05/16 06:44:56;;;;;;;9.20;6.97;;;;;;;13.77;87.51;98621.69;4958092;29;20062;-65
2021/05/16 06:47:26;;;;;;;8.95;6.95;;;;;;;13.78;87.40;98623.34;4957879;29;20052;-66
2021/05/16 06:49:55;;;;;;;9.52;6.78;;;;;;;13.80;87.83;98617.28;4958279;29;20126;-64
2021/05/16 06:52:24;;;;;;;8.05;5.10;;;;;;;13.88;87.64;98624.75;4958159;29;20047;-67
2021/05/16 06:54:56;;;;;;;8.90;7.20;;;;;;;13.92;87.29;98611.78;4958095;29;20054;-64
2021/05/16 06:57:25;;;;;;;9.25;7.07;;;;;;;14.04;87.30;98621.66;4958085;29;20063;-68
2021/05/16 06:59:54;;;;;;;7.80;6.40;;;;;;;14.09;87.34;98626.63;4958454;29;20051;-67
2021/05/16 07:02:24;;;;;;;9.70;6.50;;;;;;;14.05;86.95;98619.94;4957811;29;20082;-68
2021/05/16 07:04:58;;;;;;;8.40;6.18;;;;;;;14.17;87.04;98634.09;4958145;29;20061;-65
2021/05/16 07:07:30;;;;;;;8.88;6.60;;;;;;;14.25;86.56;98635.53;4957999;29;20413;-68
2021/05/16 07:09:59;;;;;;;9.35;6.05;;;;;;;14.25;86.37;98635.53;4957930;29;20063;-65
2021/05/16 07:12:29;;;;;;;7.40;6.15;;;;;;;14.23;86.38;98637.28;4957611;29;20063;-65
2021/05/16 07:15:01;;;;;;;10.85;5.85;;;;;;;14.31;86.21;98635.38;4957693;29;20105;-66
2021/05/16 07:17:32;;;;;;;8.65;6.03;;;;;;;14.39;86.23;98635.13;4957655;29;20138;-65
2021/05/16 07:20:04;;;;;;;8.02;5.90;;;;;;;14.49;85.65;98634.75;4957983;29;20075;-64
2021/05/16 07:22:33;;;;;;;7.13;5.13;;;;;;;14.48;85.57;98627.94;4957527;29;20055;-68
2021/05/16 07:25:06;;;;;;;6.03;4.70;;;;;;;14.54;85.58;98630.31;4957322;29;20055;-64
2021/05/16 07:27:35;;;;;;;7.07;4.18;;;;;;;14.56;85.46;98630.28;4957553;29;20114;-64
2021/05/16 07:30:05;;;;;;;5.27;4.27;;;;;;;14.50;84.91;98633.88;4957412;29;20039;-64
2021/05/16 07:32:35;;;;;;;4.05;2.75;;;;;;;14.40;84.58;98639.34;4957350;29;20402;-64
2021/05/16 07:35:09;;;;;;;5.80;2.70;;;;;;;14.28;84.41;98632.84;4957244;29;20086;-67
2021/05/16 07:37:39;;;;;;;3.45;2.28;;;;;;;14.24;84.60;98631.28;4957167;29;20130;-68
2021/05/16 07:40:09;;;;;;;3.50;2.20;;;;;;;14.11;84.29;98633.41;4957322;29;20133;-65
2021/05/16 07:42:38;;;;;;;3.60;1.98;;;;;;;13.96;84.01;98628.75;4957328;29;20062;-66
2021/05/16 07:45:16;;;;;;;3.78;2.25;;;;;;;13.88;84.68;98643.56;4957228;29;20063;-65
2021/05/16 07:47:50;;;;;;;3.75;2.35;;;;;;;13.87;84.35;98644.41;4956635;29;20408;-65
2021/05/16 07:50:19;;;;;;;2.92;1.92;;;;;;;13.85;84.51;98642.78;4957490;29;20047;-65
2021/05/16 07:52:51;;;;;;;3.10;1.93;;;;;;;13.93;84.65;98651.09;4957075;28;20527;-68
2021/05/16 07:55:23;;;;;;;3.40;2.10;;;;;;;13.94;84.70;98651.03;4956993;29;20137;-66
2021/05/16 07:57:52;;;;;;;2.90;1.88;;;;;;;13.95;84.53;98641.63;4956992;29;20123;-68
2021/05/16 08:00:24;;;;;;;3.53;1.80;;;;;;;13.95;84.06;98650.16;4956929;29;20075;-67
2021/05/16 08:02:56;;;;;;;4.47;2.00;;;;;;;13.97;84.35;98650.97;4957208;29;20059;-68
2021/05/16 08:05:26;;;;;;;3.05;1.83;;;;;;;13.94;84.17;98655.34;4957890;29;20150;-65
2021/05/16 08:07:55;;;;;;;2.53;1.60;;;;;;;13.89;83.89;98646.97;4956568;29;20446;-65
2021/05/16 08:10:27;;;;;;;3.85;1.92;;;;;;;13.90;83.84;98651.19;4956603;29;20130;-68
2021/05/16 08:12:56;;;;;;;2.95;1.60;;;;;;;13.88;83.79;98661.50;4956582;29;20532;-65
2021/05/16 08:15:26;;;;;;;3.28;1.58;;;;;;;13.89;83.13;98659.78;4956589;29;20043;-65
2021/05/16 08:17:56;;;;;;;2.88;1.70;;;;;;;13.86;83.21;98667.56;4956827;29;20456;-67
2021/05/16 08:20:26;;;;;;;3.00;1.50;;;;;;;13.87;83.01;98669.22;4956790;29;20125;-68
2021/05/16 08:22:55;;;;;;;2.92;1.65;;;;;;;13.89;82.33;98667.47;4956288;29;20161;-65
2021/05/16 08:25:25;;;;;;;2.58;1.67;;;;;;;13.86;82.59;98668.41;4955411;29;20403;-65
2021/05/16 08:27:54;;;;;;;2.75;1.80;;;;;;;13.93;82.33;98674.19;4955364;29;20070;-67
2021/05/16 08:30:23;;;;;;;2.50;1.80;;;;;;;14.04;82.18;98672.13;4955858;29;20047;-66
2021/05/16 08:32:52;;;;;;;4.10;1.83;;;;;;;14.15;81.92;98679.50;4955563;29;20039;-67
2021/05/16 08:35:22;;;;;;;3.03;2.10;;;;;;;14.12;81.96;98665.03;4956367;29;20135;-66
2021/05/16 08:37:53;;;;;;;3.08;1.95;;;;;;;14.20;81.85;98673.34;4956095;29;20046;-65
2021/05/16 08:40:22;;;;;;;3.13;1.80;;;;;;;14.18;81.20;98682.78;4955963;29;20069;-65
2021/05/16 08:42:52;;;;;;;2.90;1.88;;;;;;;14.13;80.80;98682.94;4955833;29;20055;-65
2021/05/16 08:45:20;;;;;;;3.97;1.52;;;;;;;14.15;80.67;98693.19;4955863;29;20051;-64
2021/05/16 08:47:50;;;;;;;3.28;1.80;;;;;;;14.19;80.33;98694.75;4955777;29;20477;-65
2021/05/16 08:50:19;;;;;;;2.63;1.40;;;;;;;14.13;80.30;98696.66;4955668;29;20138;-65
2021/05/16 08:52:50;;;;;;;3.08;1.40;;;;;;;14.20;79.78;98695.59;4955795;29;20069;-67
2021/05/16 08:55:23;;;;;;;2.08;1.40;;;;;;;14.21;79.07;98698.09;4955737;29;20047;-65
2021/05/16 08:57:53;;;;;;;2.40;1.45;;;;;;;14.23;79.04;98704.03;4955705;29;20412;-67
2021/05/16 09:00:26;;;;;;;3.83;1.43;;;;;;;14.20;78.75;98709.28;4955976;29;20051;-64
2021/05/16 09:03:07;;;;;;;1.83;1.20;;;;;;;14.20;78.15;98711.84;4955811;29;20671;-66
2021/05/16 09:05:41;;;;;;;3.15;1.50;;;;;;;14.26;78.17;98713.34;4955313;28;20065;-66
2021/05/16 09:08:21;;;;;;;2.30;1.30;;;;;;;14.40;78.36;98717.22;4956398;29;20054;-66
2021/05/16 09:10:55;;;;;;;2.97;1.30;;;;;;;14.46;78.23;98719.59;4955761;29;20560;-66
2021/05/16 09:13:27;;;;;;;2.95;1.50;;;;;;;14.54;78.61;98725.31;4955480;29;20047;-65
2021/05/16 09:16:07;;;;;;;3.58;1.50;;;;;;;14.64;78.77;98719.00;4955466;29;20061;-67
2021/05/16 09:18:42;;;;;;;2.55;1.38;;;;;;;14.72;78.38;98729.88;4955745;29;20501;-65
2021/05/16 09:21:27;;;;;;;3.67;1.25;;;;;;;14.75;78.30;98724.63;4955592;29;20063;-66
2021/05/16 09:24:13;;;;;;;2.70;1.30;;;;;;;14.81;77.72;98725.28;4955729;29;20485;-66
2021/05/16 09:26:56;;;;;;;1.80;1.08;;;;;;;14.97;76.59;98735.00;4955671;29;20063;-65
2021/05/16 09:29:30;;;;;;;1.80;1.10;;;;;;;15.15;76.18;98728.41;4955593;29;20106;-66
2021/05/16 09:32:04;;;;;;;1.70;1.10;;;;;;;15.31;75.45;98714.97;4955576;29;20059;-66
2021/05/16 09:34:39;;;;;;;2.65;1.30;;;;;;;15.53;74.93;98725.38;4955660;29;20517;-64
2021/05/16 09:37:08;;;;;;;1.98;1.10;;;;;;;15.65;73.53;98709.50;4955767;29;20051;-65
2021/05/16 09:39:38;;;;;;;2.13;1.33;;;;;;;16.00;74.00;98716.72;4955585;29;20047;-65
2021/05/16 09:42:13;;;;;;;2.75;1.20;;;;;;;16.28;73.00;98718.25;4955416;29;20102;-65
2021/05/16 09:44:45;;;;;;;4.78;1.42;;;;;;;16.63;72.04;98718.53;4953052;29;20051;-65
2021/05/16 09:47:17;;;;;;;1.95;1.10;;;;;;;16.69;70.96;98717.47;4951844;29;20075;-65
2021/05/16 09:49:48;;;;;;;2.22;1.23;;;;;;;16.88;70.28;98702.94;4935833;29;20051;-65
2021/05/16 09:52:20;;;;;;;1.58;1.02;;;;;;;17.08;69.70;98715.81;4935917;29;20520;-65
2021/05/16 09:55:00;;;;;;;3.05;1.38;;;;;;;17.24;68.83;98716.84;4935840;29;20409;-65
2021/05/16 09:57:32;;;;;;;2.08;1.15;;;;;;;17.51;68.61;98724.28;4935898;29;20134;-65
2021/05/16 10:00:03;;;;;;;1.88;1.20;;;;;;;17.71;67.83;98713.91;4942828;29;20062;-66
2021/05/16 10:02:33;;;;;;;1.55;1.00;;;;;;;17.78;67.23;98723.91;4954539;29;20044;-64
2021/05/16 10:05:02;;;;;;;2.28;1.02;;;;;;;17.74;66.36;98722.38;4955129;29;20058;-65
2021/05/16 10:07:31;;;;;;;3.50;1.20;;;;;;;17.57;66.16;98718.88;4955056;29;20043;-65
2021/05/16 10:10:01;;;;;;;2.97;1.23;;;;;;;17.49;66.36;98715.78;4955282;29;20047;-65
2021/05/16 10:12:31;;;;;;;2.08;1.20;;;;;;;17.36;65.43;98718.88;4955176;29;20055;-65
2021/05/16 10:15:04;;;;;;;2.15;1.10;;;;;;;17.27;65.22;98727.03;4944102;29;20048;-67
2021/05/16 10:17:35;;;;;;;1.85;1.05;;;;;;;17.17;65.81;98723.16;4938214;29;20110;-67
2021/05/16 10:20:10;;;;;;;1.95;1.10;;;;;;;17.17;66.33;98718.00;4939727;29;20126;-65
2021/05/16 10:22:39;;;;;;;1.58;1.00;;;;;;;17.28;66.43;98728.69;4939517;29;20102;-66
2021/05/16 10:25:09;;;;;;;2.10;1.20;;;;;;;17.28;66.29;98726.09;4938986;29;20126;-67
2021/05/16 10:27:44;;;;;;;4.00;1.10;;;;;;;17.20;66.97;98725.59;4939218;29;20434;-67
2021/05/16 10:30:17;;;;;;;1.70;0.98;;;;;;;17.11;65.90;98720.84;4939305;29;20124;-67
2021/05/16 10:32:50;;;;;;;2.90;0.90;;;;;;;17.09;65.93;98730.38;4939295;29;20493;-65
2021/05/16 10:35:21;;;;;;;1.58;0.85;;;;;;;17.17;65.23;98730.06;4939268;29;20056;-67
2021/05/16 10:37:54;;;;;;;2.03;1.00;;;;;;;17.21;65.02;98731.59;4945781;29;20043;-68
2021/05/16 10:40:26;;;;;;;1.33;1.00;;;;;;;17.30;64.99;98729.44;4958164;29;20067;-66
2021/05/16 10:43:00;;;;;;;1.60;0.90;;;;;;;17.46;64.36;98732.22;4957382;29;20482;-67
2021/05/16 10:45:34;;;;;;;1.20;0.95;;;;;;;17.89;63.83;98728.59;4940833;29;20135;-66
2021/05/16 10:48:17;;;;;;;1.33;0.90;;;;;;;18.35;63.34;98714.38;4947078;28;20051;-68
2021/05/16 10:50:55;;;;;;;2.38;1.02;;;;;;;18.93;62.22;98717.59;4955929;28;20070;-66
2021/05/16 10:53:32;;;;;;;1.60;1.00;;;;;;;19.18;61.43;98723.19;4958248;28;20437;-65
2021/05/16 10:56:19;;;;;;;1.67;1.02;;;;;;;19.01;61.01;98721.47;4956351;28;20043;-65
2021/05/16 10:58:53;;;;;;;1.45;0.95;;;;;;;18.65;60.03;98713.78;4957544;28;20102;-65
2021/05/16 11:01:40;;;;;;;1.75;0.90;;;;;;;18.32;60.05;98717.94;4955849;28;20516;-65
2021/05/16 11:04:10;;;;;;;1.38;1.00;;;;;;;18.06;60.01;98710.59;4955476;28;20105;-65
2021/05/16 11:07:00;;;;;;;1.23;0.95;;;;;;;17.89;60.38;98715.69;4957419;28;20051;-65
2021/05/16 11:09:35;;;;;;;2.00;1.25;;;;;;;17.92;60.89;98715.56;4957666;29;20051;-65
2021/05/16 11:12:07;;;;;;;1.65;0.95;;;;;;;17.94;60.90;98708.56;4955432;28;20043;-65
2021/05/16 11:14:39;;;;;;;3.97;1.20;;;;;;;18.00;60.68;98708.28;4955933;28;20370;-65
2021/05/16 11:17:15;;;;;;;1.33;0.90;;;;;;;18.27;60.21;98707.00;4956667;28;20051;-65
2021/05/16 11:19:47;;;;;;;1.85;1.10;;;;;;;18.59;59.93;98698.59;4956919;28;20146;-69
2021/05/16 11:22:20;;;;;;;1.77;0.98;;;;;;;18.88;59.47;98696.28;4956699;28;20516;-65
2021/05/16 11:24:53;;;;;;;1.40;1.00;;;;;;;19.28;59.19;98698.53;4957643;29;20055;-65
2021/05/16 11:27:26;;;;;;;1.83;1.02;;;;;;;19.63;58.33;98691.50;4955720;28;20051;-69
2021/05/16 11:30:06;;;;;;;1.63;1.10;;;;;;;20.06;57.37;98693.47;4955850;28;20059;-65
2021/05/16 11:32:36;;;;;;;1.42;0.90;;;;;;;20.16;55.07;98693.78;4955462;28;20592;-67
2021/05/16 11:35:16;;;;;;;1.02;0.70;;;;;;;20.41;54.20;98686.38;4956697;28;20396;-65
2021/05/16 11:37:48;;;;;;;4.38;0.90;;;;;;;20.66;53.55;98694.41;4949294;28;20063;-66
2021/05/16 11:40:25;;;;;;;2.53;1.00;;;;;;;20.73;52.11;98685.38;4953635;28;20039;-64
2021/05/16 11:43:03;;;;;;;1.35;0.90;;;;;;;20.41;51.83;98678.59;4954916;28;20474;-66
2021/05/16 11:45:38;;;;;;;2.25;0.90;;;;;;;19.76;52.47;98685.63;4953686;28;20051;-68
2021/05/16 11:48:08;;;;;;;1.67;0.90;;;;;;;19.45;54.07;98683.00;4960271;28;20066;-64
2021/05/16 11:50:40;;;;;;;;;;;;;;;19.54;54.57;98677.31;4974725;28;20101;-66
2021/05/16 11:53:09;;;;;;;1.75;1.00;;;;;;;19.45;55.19;98680.41;4962638;28;20352;-65
2021/05/16 11:55:39;;;;;;;1.47;0.90;;;;;;;19.38;54.92;98674.72;4970925;28;20043;-67
2021/05/16 11:58:11;;;;;;;1.08;0.80;;;;;;;19.19;54.54;98673.13;4955628;28;20065;-64